Time;durP1;ratioP1;P1;durP2;ratioP2;P2;SDS_P1;SDS_P2;PMS_P1;PMS_P2;Temp;Humidity;BMP_temperature;BMP_pressure;BME280_temperature;BME280_humidity;BME280_pressure;Samples;Min_cycle;Max_cycle;Signal;HPM_P1;HPM_P2
2024/02/23 00:00:13;;;;;;;8.30;1.40;;;6.70;99.90;;;;;;4918864;28;40614;-81
2024/02/23 00:02:39;;;;;;;10.80;1.30;;;6.60;99.90;;;;;;4921341;28;39707;-81
2024/02/23 00:05:06;;;;;;;11.13;1.73;;;6.50;99.90;;;;;;4918936;28;38617;-81
2024/02/23 00:07:32;;;;;;;16.73;2.10;;;6.50;99.90;;;;;;4923354;28;38567;-81
2024/02/23 00:10:24;;;;;;;10.40;1.53;;;6.50;99.90;;;;;;4922514;28;38522;-80
2024/02/23 00:12:51;;;;;;;13.02;2.38;;;6.60;99.90;;;;;;4917704;28;48235;-80
2024/02/23 00:15:26;;;;;;;10.50;2.00;;;6.60;99.90;;;;;;4910261;28;38082;-80
2024/02/23 00:17:53;;;;;;;20.40;2.80;;;6.60;99.90;;;;;;4922935;28;39380;-80
2024/02/23 00:20:56;;;;;;;17.57;3.27;;;6.60;99.90;;;;;;4913838;28;38647;-81
2024/02/23 00:23:22;;;;;;;;;;;6.60;99.90;;;;;;4919722;28;39540;-80
2024/02/23 00:25:48;;;;;;;8.77;1.93;;;6.60;99.90;;;;;;4922834;28;38714;-81
2024/02/23 00:28:15;;;;;;;16.77;2.00;;;6.60;99.90;;;;;;4918715;28;39118;-82
2024/02/23 00:30:53;;;;;;;9.77;1.60;;;6.50;99.90;;;;;;4919064;28;38029;-81
2024/02/23 00:33:20;;;;;;;20.53;2.23;;;6.50;99.90;;;;;;4918224;28;38490;-80
2024/02/23 00:36:20;;;;;;;12.70;1.77;;;6.60;99.90;;;;;;4919468;28;38610;-80
2024/02/23 00:38:47;;;;;;;12.80;2.00;;;6.60;99.90;;;;;;4886594;29;46847;-81
2024/02/23 00:41:28;;;;;;;17.60;2.53;;;6.50;99.90;;;;;;4909375;29;37848;-81
2024/02/23 00:43:55;;;;;;;12.07;2.30;;;6.50;99.90;;;;;;4907275;29;36908;-81
2024/02/23 00:46:22;;;;;;;13.90;2.53;;;6.50;99.90;;;;;;4910485;29;37195;-81
2024/02/23 00:48:56;;;;;;;14.67;2.80;;;6.50;99.90;;;;;;4913536;29;37312;-80
2024/02/23 00:51:37;;;;;;;10.73;1.77;;;6.50;99.90;;;;;;4905385;29;37332;-80
2024/02/23 00:54:07;;;;;;;14.13;1.70;;;6.50;99.90;;;;;;4913842;28;39555;-79
2024/02/23 00:56:35;;;;;;;13.10;1.80;;;6.50;99.90;;;;;;4914858;28;38140;-80
2024/02/23 00:59:45;;;;;;;10.43;1.70;;;6.50;99.90;;;;;;4906124;28;39086;-81
2024/02/23 01:02:17;;;;;;;12.60;2.30;;;6.40;99.90;;;;;;4917220;28;48971;-79
2024/02/23 01:04:56;;;;;;;9.67;1.47;;;6.40;99.90;;;;;;4921431;28;39380;-81
2024/02/23 01:07:23;;;;;;;10.00;1.43;;;6.40;99.90;;;;;;4918633;28;37045;-81
2024/02/23 01:09:50;;;;;;;11.77;2.20;;;6.40;99.90;;;;;;4912878;29;38788;-81
2024/02/23 01:12:18;;;;;;;17.30;2.07;;;6.30;99.90;;;;;;4917019;28;40033;-80
2024/02/23 01:14:48;;;;;;;12.20;1.57;;;6.30;96.30;;;;;;4919929;28;38063;-80
2024/02/23 01:17:33;;;;;;;15.17;2.00;;;6.30;93.40;;;;;;4917398;29;37049;-81
2024/02/23 01:20:00;;;;;;;13.63;1.90;;;6.30;93.10;;;;;;4909831;29;40566;-81
2024/02/23 01:22:28;;;;;;;10.50;1.80;;;6.30;91.20;;;;;;4904509;29;40863;-80
2024/02/23 01:25:15;;;;;;;12.10;2.20;;;6.30;94.00;;;;;;4919588;28;37483;-80
2024/02/23 01:27:46;;;;;;;14.77;2.00;;;6.30;95.70;;;;;;4912162;29;48581;-79
2024/02/23 01:30:22;;;;;;;16.73;2.03;;;6.30;96.20;;;;;;4910424;28;38505;-80
2024/02/23 01:32:50;;;;;;;12.40;1.97;;;6.30;95.80;;;;;;4908438;29;37139;-81
2024/02/23 01:35:19;;;;;;;16.77;2.43;;;6.20;99.90;;;;;;4906726;28;37943;-78
2024/02/23 01:37:45;;;;;;;17.17;2.30;;;6.30;99.90;;;;;;4919873;29;36370;-81
2024/02/23 01:40:14;;;;;;;12.57;2.30;;;6.40;99.90;;;;;;4918766;28;40090;-80
2024/02/23 01:42:41;;;;;;;12.23;2.13;;;6.50;99.90;;;;;;4917050;29;38266;-80
2024/02/23 01:45:07;;;;;;;15.70;2.43;;;6.50;99.90;;;;;;4911901;29;38010;-80
2024/02/23 01:47:36;;;;;;;14.13;2.50;;;6.50;99.90;;;;;;4913557;29;38558;-80
2024/02/23 01:50:03;;;;;;;15.50;1.70;;;6.60;99.90;;;;;;4911777;29;38955;-80
2024/02/23 01:52:30;;;;;;;17.07;2.17;;;6.60;99.90;;;;;;4905193;29;48522;-79
2024/02/23 01:54:56;;;;;;;14.37;2.10;;;6.60;96.70;;;;;;4909124;28;38451;-80
2024/02/23 01:57:24;;;;;;;13.90;1.80;;;6.60;94.00;;;;;;4907990;29;38627;-80
2024/02/23 02:00:08;;;;;;;16.30;2.80;;;6.70;88.40;;;;;;4914481;28;40327;-81
2024/02/23 02:05:11;;;;;;;12.00;2.10;;;6.60;98.10;;;;;;5027776;23;20053;-79
2024/02/23 02:07:45;;;;;;;14.77;2.30;;;6.50;99.90;;;;;;4913357;29;37294;-81
2024/02/23 02:10:47;;;;;;;10.93;1.53;;;6.40;99.90;;;;;;4911149;29;38752;-81
2024/02/23 02:13:18;;;;;;;15.40;2.00;;;6.40;99.90;;;;;;4893658;29;39244;-81
2024/02/23 02:15:52;;;;;;;13.00;2.00;;;6.40;99.90;;;;;;4895591;29;39473;-81
2024/02/23 02:18:23;;;;;;;17.90;1.60;;;6.40;99.90;;;;;;4884938;29;37738;-82
2024/02/23 02:21:03;;;;;;;14.57;1.87;;;6.40;99.90;;;;;;4903413;29;37555;-81
2024/02/23 02:23:30;;;;;;;11.07;1.90;;;6.40;99.90;;;;;;4899523;29;48032;-81
2024/02/23 02:26:39;;;;;;;14.33;2.07;;;6.30;99.90;;;;;;4907516;29;36646;-80
2024/02/23 02:29:49;;;;;;;10.57;2.03;;;6.30;99.90;;;;;;4909826;29;47630;-80
2024/02/23 02:32:18;;;;;;;14.63;1.40;;;6.30;99.90;;;;;;4906825;29;39081;-80
2024/02/23 02:34:58;;;;;;;11.63;1.53;;;6.20;99.90;;;;;;4908323;29;37860;-81
2024/02/23 02:37:34;;;;;;;13.13;2.23;;;6.20;99.90;;;;;;4916293;28;39646;-82
2024/02/23 02:40:01;;;;;;;6.33;1.03;;;6.10;99.90;;;;;;4902399;29;37541;-81
2024/02/23 02:42:28;;;;;;;10.13;1.63;;;6.10;99.90;;;;;;4910724;29;40228;-81
2024/02/23 02:44:54;;;;;;;15.00;1.70;;;6.10;99.90;;;;;;4909253;29;37212;-81
2024/02/23 02:47:20;;;;;;;11.77;2.37;;;6.20;99.90;;;;;;4909617;29;38605;-80
2024/02/23 02:49:48;;;;;;;14.27;2.23;;;6.20;99.90;;;;;;4909535;29;37662;-80
2024/02/23 02:52:15;;;;;;;12.30;1.87;;;6.20;99.90;;;;;;4907855;29;38659;-81
2024/02/23 02:54:41;;;;;;;11.67;1.70;;;6.10;99.90;;;;;;4913896;29;39692;-81
2024/02/23 02:57:14;;;;;;;12.87;1.67;;;6.10;99.90;;;;;;4912877;29;37226;-81
2024/02/23 02:59:40;;;;;;;12.32;1.35;;;6.00;99.90;;;;;;4913893;29;37841;-81
2024/02/23 03:02:06;;;;;;;7.30;1.63;;;5.90;99.90;;;;;;4914701;29;39056;-81
2024/02/23 03:04:35;;;;;;;13.70;1.60;;;5.90;99.90;;;;;;4905299;29;37798;-81
2024/02/23 03:07:11;;;;;;;10.23;1.50;;;5.80;99.90;;;;;;4918521;28;38418;-79
2024/02/23 03:09:37;;;;;;;10.93;1.40;;;5.80;99.90;;;;;;4917201;28;38277;-80
2024/02/23 03:12:08;;;;;;;9.43;2.30;;;5.80;99.90;;;;;;4902879;28;37867;-80
2024/02/23 03:14:34;;;;;;;18.97;2.57;;;5.70;99.90;;;;;;4907625;29;39643;-81
2024/02/23 03:17:01;;;;;;;8.83;1.37;;;5.80;99.90;;;;;;4899897;29;39667;-82
2024/02/23 03:19:29;;;;;;;10.97;2.07;;;5.80;99.90;;;;;;4901859;29;49099;-82
2024/02/23 03:22:13;;;;;;;17.57;2.40;;;5.70;99.90;;;;;;4913494;29;38686;-81
2024/02/23 03:24:40;;;;;;;11.57;1.90;;;5.70;99.90;;;;;;4901474;29;48549;-82
2024/02/23 03:27:21;;;;;;;11.03;3.37;;;5.70;99.90;;;;;;4905626;29;38024;-82
2024/02/23 03:29:53;;;;;;;11.73;1.83;;;5.70;99.90;;;;;;4903899;29;37416;-81
2024/02/23 03:32:20;;;;;;;22.00;2.20;;;5.60;99.90;;;;;;4918549;29;39484;-81
2024/02/23 03:34:54;;;;;;;15.60;1.63;;;5.70;99.90;;;;;;4919367;29;39069;-81
2024/02/23 03:37:20;;;;;;;12.13;2.17;;;5.70;99.90;;;;;;4903100;29;38786;-81
2024/02/23 03:39:48;;;;;;;10.03;1.73;;;5.70;99.90;;;;;;4902355;29;37100;-81
2024/02/23 03:42:23;;;;;;;15.50;1.77;;;5.70;99.90;;;;;;4909423;29;40321;-81
2024/02/23 03:44:50;;;;;;;16.63;2.00;;;5.70;99.90;;;;;;4919715;29;37357;-81
2024/02/23 03:47:29;;;;;;;11.90;1.80;;;5.70;99.90;;;;;;4912404;29;40274;-81
2024/02/23 03:49:59;;;;;;;19.97;2.03;;;5.70;99.90;;;;;;4912183;29;37325;-81
2024/02/23 03:52:51;;;;;;;13.13;2.60;;;5.60;99.90;;;;;;4904662;29;38886;-80
2024/02/23 03:55:17;;;;;;;17.83;1.80;;;5.70;99.90;;;;;;4904517;29;39231;-81
2024/02/23 03:57:52;;;;;;;17.93;2.00;;;5.60;99.90;;;;;;4917437;29;38926;-81
2024/02/23 04:00:24;;;;;;;9.00;1.77;;;5.70;99.90;;;;;;4916434;29;37271;-82
2024/02/23 04:02:53;;;;;;;10.70;2.13;;;5.70;99.90;;;;;;4907397;29;48253;-82
2024/02/23 04:05:20;;;;;;;15.70;2.10;;;5.80;99.90;;;;;;4909514;29;38420;-80
2024/02/23 04:07:49;;;;;;;16.97;2.03;;;5.70;99.90;;;;;;4905481;29;38291;-80
2024/02/23 04:10:16;;;;;;;8.77;1.90;;;5.70;99.90;;;;;;4905272;29;39021;-81
2024/02/23 04:12:43;;;;;;;10.77;2.20;;;5.70;99.90;;;;;;4905666;29;40508;-81
2024/02/23 04:15:12;;;;;;;15.13;1.63;;;5.70;99.90;;;;;;4902373;29;39069;-82
2024/02/23 04:17:46;;;;;;;19.77;2.07;;;5.80;99.90;;;;;;4909521;29;37434;-81
2024/02/23 04:20:33;;;;;;;13.87;2.07;;;5.80;99.90;;;;;;4915514;29;37375;-79
2024/02/23 04:22:59;;;;;;;13.03;2.87;;;5.90;99.90;;;;;;4918462;29;39245;-81
2024/02/23 04:25:25;;;;;;;10.20;2.83;;;6.00;99.90;;;;;;4917599;29;37879;-80
2024/02/23 04:27:52;;;;;;;12.93;3.17;;;6.00;99.90;;;;;;4917235;29;39522;-80
2024/02/23 04:30:27;;;;;;;10.50;2.40;;;6.00;99.90;;;;;;4916564;29;37016;-80
2024/02/23 04:33:04;;;;;;;10.17;1.60;;;5.90;99.90;;;;;;4908788;29;39222;-80
2024/02/23 04:35:30;;;;;;;12.13;1.73;;;6.00;99.90;;;;;;4904643;29;47088;-81
2024/02/23 04:37:57;;;;;;;19.17;2.23;;;6.00;99.90;;;;;;4908325;29;39326;-81
2024/02/23 04:40:31;;;;;;;10.43;1.83;;;6.00;99.90;;;;;;4903647;29;35796;-80
2024/02/23 04:42:59;;;;;;;8.90;2.07;;;6.00;99.90;;;;;;4905628;29;40400;-81
2024/02/23 04:45:33;;;;;;;10.63;1.77;;;6.00;99.90;;;;;;4911580;29;38195;-82
2024/02/23 04:47:59;;;;;;;9.90;1.47;;;6.10;99.90;;;;;;4915540;29;38549;-81
2024/02/23 04:50:26;;;;;;;16.33;2.97;;;6.10;99.90;;;;;;4910736;29;36991;-81
2024/02/23 04:52:52;;;;;;;8.30;1.50;;;6.10;99.90;;;;;;4910968;29;39453;-81
2024/02/23 04:55:20;;;;;;;8.80;1.60;;;6.20;99.90;;;;;;4904024;29;38206;-81
2024/02/23 04:58:06;;;;;;;9.23;1.60;;;6.20;99.90;;;;;;4901797;29;38473;-81
2024/02/23 05:00:41;;;;;;;8.90;2.30;;;6.20;99.90;;;;;;4899587;29;49718;-80
2024/02/23 05:03:08;;;;;;;13.43;1.80;;;6.20;99.90;;;;;;4904816;29;39006;-80
2024/02/23 05:05:44;;;;;;;11.90;2.87;;;6.20;99.90;;;;;;4907468;29;40006;-80
2024/02/23 05:08:11;;;;;;;9.60;1.47;;;6.20;99.90;;;;;;4911345;28;38514;-80
2024/02/23 05:10:37;;;;;;;8.40;1.80;;;6.10;99.90;;;;;;4916729;29;36217;-79
2024/02/23 05:13:32;;;;;;;16.70;2.10;;;6.00;99.90;;;;;;4913994;29;39019;-80
2024/02/23 05:16:05;;;;;;;8.70;1.73;;;5.90;99.90;;;;;;4906740;29;37620;-81
2024/02/23 05:19:08;;;;;;;13.00;2.50;;;5.90;99.90;;;;;;4915820;29;47642;-80
2024/02/23 05:21:37;;;;;;;7.43;2.10;;;5.90;99.90;;;;;;4902894;29;47217;-82
2024/02/23 05:24:06;;;;;;;12.17;3.53;;;5.80;99.90;;;;;;4919647;29;38561;-80
2024/02/23 05:26:33;;;;;;;8.07;2.07;;;5.80;99.90;;;;;;4912335;29;38543;-81
2024/02/23 05:29:19;;;;;;;10.23;2.70;;;5.90;99.90;;;;;;4920254;28;39700;-80
2024/02/23 05:31:49;;;;;;;12.17;2.33;;;6.00;99.90;;;;;;4913557;29;20068;-80
2024/02/23 05:34:30;;;;;;;13.33;2.30;;;6.00;99.90;;;;;;4908873;29;40226;-81
2024/02/23 05:40:13;;;;;;;7.93;2.23;;;6.10;99.90;;;;;;4903626;29;49726;-80
2024/02/23 05:42:39;;;;;;;9.37;2.10;;;6.10;99.90;;;;;;4910856;29;37106;-81
2024/02/23 05:45:19;;;;;;;11.53;2.20;;;6.20;99.90;;;;;;4917512;29;37116;-81
2024/02/23 05:47:49;;;;;;;8.63;2.70;;;6.20;99.90;;;;;;4905558;29;39840;-80
2024/02/23 05:50:18;;;;;;;16.63;2.53;;;6.20;99.90;;;;;;4911959;28;39341;-81
2024/02/23 05:52:46;;;;;;;9.47;2.43;;;6.20;99.90;;;;;;4903283;29;38660;-81
2024/02/23 05:55:20;;;;;;;10.53;2.33;;;6.30;99.90;;;;;;4903320;29;39126;-81
2024/02/23 05:57:47;;;;;;;11.50;2.77;;;6.20;99.90;;;;;;4914308;28;39560;-81
2024/02/23 06:00:14;;;;;;;12.67;2.20;;;6.20;99.90;;;;;;4915567;28;38040;-81
2024/02/23 06:02:51;;;;;;;7.97;2.30;;;6.20;99.90;;;;;;4904001;29;38261;-81
2024/02/23 06:05:47;;;;;;;13.97;2.43;;;6.20;99.90;;;;;;4915181;28;38859;-80
2024/02/23 06:08:30;;;;;;;10.13;2.27;;;6.20;99.90;;;;;;4894219;28;38798;-80
2024/02/23 06:10:59;;;;;;;10.00;2.40;;;6.20;99.90;;;;;;4921854;28;39399;-80
2024/02/23 06:13:33;;;;;;;6.63;2.00;;;6.20;99.90;;;;;;4907548;28;37337;-81
2024/02/23 06:16:13;;;;;;;12.23;2.70;;;6.20;99.90;;;;;;4918419;28;38212;-81
2024/02/23 06:19:03;;;;;;;9.17;2.43;;;6.20;99.90;;;;;;4903064;28;48965;-80
2024/02/23 06:21:36;;;;;;;10.10;2.53;;;6.20;99.90;;;;;;4895165;28;49523;-82
2024/02/23 06:24:13;;;;;;;8.50;2.47;;;6.20;99.90;;;;;;4919586;28;37263;-81
2024/02/23 06:26:54;;;;;;;7.10;2.00;;;6.10;99.90;;;;;;4920192;28;41415;-81
2024/02/23 06:29:27;;;;;;;6.53;2.43;;;6.20;99.90;;;;;;4917052;28;39230;-80
2024/02/23 06:31:55;;;;;;;;;;;6.10;99.90;;;;;;4908082;28;38238;-82
2024/02/23 06:34:37;;;;;;;8.57;3.33;;;6.10;99.90;;;;;;4905915;28;37781;-81
2024/02/23 06:37:08;;;;;;;12.17;2.90;;;6.10;99.90;;;;;;4912448;28;40737;-81
2024/02/23 06:40:21;;;;;;;8.53;2.67;;;6.10;99.90;;;;;;4918595;28;39176;-82
2024/02/23 06:43:29;;;;;;;8.85;2.65;;;6.10;99.90;;;;;;4916453;28;48946;-82
2024/02/23 06:45:58;;;;;;;13.27;2.97;;;6.20;99.90;;;;;;4917563;29;48405;-80
2024/02/23 06:48:34;;;;;;;12.23;3.10;;;6.20;99.60;;;;;;4908089;29;40091;-81
2024/02/23 06:51:16;;;;;;;9.00;2.60;;;6.20;96.40;;;;;;4910653;29;38441;-82
2024/02/23 06:53:47;;;;;;;13.82;3.60;;;6.20;94.10;;;;;;4877386;28;48676;-82
2024/02/23 07:04:01;;;;;;;8.73;2.30;;;6.20;87.00;;;;;;5715310;23;20862;-80
2024/02/23 07:06:31;;;;;;;8.83;2.83;;;6.20;81.90;;;;;;4895571;29;37826;-78
2024/02/23 07:08:57;;;;;;;15.03;2.30;;;6.30;78.60;;;;;;4875503;29;37787;-78
2024/02/23 07:11:23;;;;;;;13.17;1.67;;;6.20;90.00;;;;;;4880723;28;39195;-77
2024/02/23 07:29:31;;;;;;;18.70;3.20;;;6.00;99.90;;;;;;4993711;23;20075;-78
2024/02/23 07:31:57;;;;;;;15.83;3.10;;;5.90;99.90;;;;;;4882754;28;40548;-80
2024/02/23 07:37:48;;;;;;;;;;;;;;;;;;;;;
2024/02/23 07:48:30;;;;;;;15.27;2.87;;;5.60;99.90;;;;;;4902538;28;20045;-79
2024/02/23 07:50:57;;;;;;;19.40;3.47;;;5.70;99.90;;;;;;4919878;28;37694;-80
2024/02/23 08:12:00;;;;;;;;;;;;;;;;;;;;;
2024/02/23 08:25:00;;;;;;;13.47;2.83;;;5.90;99.90;;;;;;5528152;23;20044;-83
2024/02/23 09:32:24;;;;;;;9.07;1.97;;;6.70;99.90;;;;;;5152701;23;20052;-81
2024/02/23 09:35:35;;;;;;;6.87;1.97;;;6.80;99.90;;;;;;4923213;28;39833;-81
2024/02/23 09:41:18;;;;;;;8.87;2.40;;;6.80;99.90;;;;;;5512797;23;20048;-80
2024/02/23 09:43:53;;;;;;;8.57;2.20;;;6.80;99.90;;;;;;4924648;28;49226;-82
2024/02/23 09:46:39;;;;;;;10.13;2.07;;;6.80;99.90;;;;;;4924166;28;38538;-81
2024/02/23 09:49:57;;;;;;;10.73;2.50;;;6.80;99.90;;;;;;4921692;28;38644;-81
2024/02/23 09:52:34;;;;;;;9.97;2.27;;;6.90;99.90;;;;;;4919257;28;38494;-82
2024/02/23 09:55:23;;;;;;;6.37;1.60;;;7.00;99.90;;;;;;4919976;29;36505;-81
2024/02/23 10:01:28;;;;;;;13.80;2.10;;;7.00;99.90;;;;;;4927436;28;50420;-81
2024/02/23 10:04:24;;;;;;;12.93;1.80;;;7.10;99.90;;;;;;4935705;28;37517;-81
2024/02/23 10:06:50;;;;;;;10.60;2.23;;;7.10;99.90;;;;;;4941025;23;47299;-77
2024/02/23 10:11:53;;;;;;;5.47;1.50;;;7.50;99.90;;;;;;5267052;23;20048;-80
2024/02/23 10:14:27;;;;;;;4.80;1.37;;;7.70;99.90;;;;;;4915143;28;41574;-79
2024/02/23 10:17:10;;;;;;;8.87;2.03;;;7.70;99.90;;;;;;4912668;28;38644;-81
2024/02/23 10:19:45;;;;;;;11.90;1.93;;;7.60;99.90;;;;;;4921269;28;48260;-80
2024/02/23 10:22:47;;;;;;;8.23;1.70;;;7.60;99.90;;;;;;4911156;28;39969;-80
2024/02/23 10:25:14;;;;;;;9.03;1.50;;;7.60;99.90;;;;;;4919833;28;39173;-81
2024/02/23 10:27:59;;;;;;;6.50;1.43;;;7.60;99.90;;;;;;4924220;28;38657;-81
2024/02/23 10:30:27;;;;;;;8.47;1.37;;;7.80;99.90;;;;;;4917764;28;39421;-81
2024/02/23 10:32:57;;;;;;;6.30;1.73;;;7.80;99.90;;;;;;4924123;28;38874;-80
2024/02/23 10:35:24;;;;;;;7.50;1.77;;;7.80;98.70;;;;;;4924850;28;40921;-78
2024/02/23 10:37:55;;;;;;;9.23;1.77;;;8.00;99.90;;;;;;4926863;28;36427;-79
2024/02/23 10:40:41;;;;;;;;;;;;;;;;;;;;;
2024/02/23 10:43:19;;;;;;;5.60;1.00;;;8.20;73.10;;;;;;4937179;28;39016;-81
2024/02/23 10:46:03;;;;;;;9.30;1.37;;;8.00;63.10;;;;;;4931075;28;39418;-80
2024/02/23 10:48:50;;;;;;;5.00;1.27;;;8.20;56.50;;;;;;4922198;28;48362;-81
2024/02/23 10:51:20;;;;;;;5.23;1.60;;;8.30;73.00;;;;;;4919950;28;38680;-81
2024/02/23 10:53:50;;;;;;;4.10;0.93;;;8.40;67.30;;;;;;4921490;28;38458;-78
2024/02/23 10:56:24;;;;;;;5.10;1.27;;;8.30;58.50;;;;;;4914628;28;37406;-80
2024/02/23 10:58:53;;;;;;;6.90;1.80;;;8.40;57.80;;;;;;4925248;29;37146;-80
2024/02/23 11:01:33;;;;;;;6.87;1.40;;;8.60;56.60;;;;;;4911676;28;37957;-82
2024/02/23 11:04:17;;;;;;;7.10;1.13;;;8.70;54.00;;;;;;4929417;28;37461;-82
2024/02/23 11:07:07;;;;;;;9.37;1.37;;;8.80;37.50;;;;;;4938046;28;48563;-81
2024/02/23 11:13:00;;;;;;;4.87;0.97;;;8.80;39.20;;;;;;4910672;23;50605;-76
2024/02/23 11:15:27;;;;;;;9.53;1.40;;;9.00;50.20;;;;;;4875245;28;37226;-76
2024/02/23 11:17:55;;;;;;;4.40;1.40;;;8.90;34.30;;;;;;4880072;28;37927;-76
2024/02/23 11:20:25;;;;;;;7.63;1.27;;;8.90;20.80;;;;;;4859179;28;37202;-76
2024/02/23 11:22:54;;;;;;;4.43;0.80;;;8.90;14.00;;;;;;4861576;29;39346;-75
2024/02/23 11:25:26;;;;;;;6.27;1.00;;;8.90;20.00;;;;;;4862495;29;36567;-76
2024/02/23 11:27:52;;;;;;;6.53;1.38;;;8.60;22.10;;;;;;4863139;29;39350;-76
2024/02/23 11:30:18;;;;;;;6.63;1.30;;;8.60;38.50;;;;;;4856512;29;36827;-75
2024/02/23 11:32:47;;;;;;;6.73;1.43;;;8.60;31.50;;;;;;4875010;29;37735;-76
2024/02/23 11:35:15;;;;;;;6.67;1.23;;;8.50;34.50;;;;;;4875298;28;37437;-76
2024/02/23 11:38:02;;;;;;;5.97;1.23;;;8.40;76.20;;;;;;4857566;29;36920;-76
2024/02/23 11:40:30;;;;;;;6.97;1.30;;;8.30;93.10;;;;;;4857076;28;47283;-76
2024/02/23 11:42:56;;;;;;;4.30;1.40;;;8.20;93.40;;;;;;4863152;29;38060;-76
2024/02/23 11:45:24;;;;;;;8.97;1.30;;;8.10;97.60;;;;;;4877970;29;37110;-75
2024/02/23 11:47:50;;;;;;;11.80;1.83;;;8.20;99.90;;;;;;4873307;29;36988;-75
2024/02/23 11:50:19;;;;;;;7.87;1.10;;;8.20;89.90;;;;;;4861582;28;37815;-75
2024/02/23 11:52:46;;;;;;;7.47;1.10;;;8.30;96.00;;;;;;4868810;28;38095;-76
2024/02/23 11:55:14;;;;;;;6.63;1.30;;;8.30;82.30;;;;;;4869611;29;37590;-76
2024/02/23 11:57:40;;;;;;;6.87;1.60;;;8.40;63.60;;;;;;4854764;29;36992;-76
2024/02/23 12:00:06;;;;;;;7.27;1.23;;;8.50;68.40;;;;;;4860676;29;36483;-78
2024/02/23 12:02:35;;;;;;;5.93;1.40;;;8.70;63.50;;;;;;4876456;28;37950;-76
2024/02/23 12:05:02;;;;;;;6.10;1.20;;;8.90;55.60;;;;;;4871053;29;38131;-75
2024/02/23 12:07:33;;;;;;;6.10;1.40;;;8.90;30.10;;;;;;4857034;29;38838;-76
2024/02/23 12:46:36;;;;;;;5.07;1.00;;;9.50;1.00;;;;;;4934833;23;20044;-82
2024/02/23 13:28:55;;;;;;;;;;;;;;;;;;;;;
2024/02/23 14:37:12;;;;;;;5.60;0.83;;;9.30;1.00;;;;;;4965366;23;20044;-81
2024/02/23 15:09:03;;;;;;;4.17;0.90;;;9.40;1.00;;;;;;3178968;23;20455;-82
2024/02/23 15:11:53;;;;;;;4.63;0.90;;;9.30;1.00;;;;;;4907519;28;38375;-81
2024/02/23 15:18:08;;;;;;;6.47;0.90;;;9.30;1.00;;;;;;4814642;29;38698;-82
2024/02/23 15:20:40;;;;;;;6.23;1.57;;;9.20;1.00;;;;;;4838801;29;49456;-80
2024/02/23 15:23:07;;;;;;;3.22;1.17;;;9.10;1.00;;;;;;4838981;29;38893;-80
2024/02/23 15:25:40;;;;;;;5.13;1.13;;;9.00;1.00;;;;;;4857137;29;37406;-81
2024/02/23 15:28:10;;;;;;;5.67;1.47;;;9.10;1.00;;;;;;4871729;28;38028;-80
2024/02/23 15:30:41;;;;;;;7.07;0.80;;;9.00;1.00;;;;;;4884703;29;39543;-79
2024/02/23 15:33:16;;;;;;;2.03;0.87;;;8.90;1.00;;;;;;4890817;29;38470;-82
2024/02/23 15:35:58;;;;;;;2.77;0.47;;;8.90;1.00;;;;;;4886074;29;37482;-79
2024/02/23 15:41:16;;;;;;;5.23;0.70;;;8.60;1.00;;;;;;4887493;29;39438;-81
2024/02/23 15:43:47;;;;;;;3.07;0.50;;;8.50;1.00;;;;;;4880238;29;38801;-81
2024/02/23 15:46:20;;;;;;;2.20;0.60;;;8.40;2.00;;;;;;4859937;29;37423;-80
2024/02/23 15:49:07;;;;;;;2.43;0.60;;;8.40;8.90;;;;;;4878495;29;36359;-80
2024/02/23 15:52:19;;;;;;;2.37;0.80;;;8.40;1.00;;;;;;4883129;29;47923;-80
2024/02/23 15:54:45;;;;;;;3.13;0.63;;;8.30;9.70;;;;;;4836031;29;48546;-77
2024/02/23 15:57:14;;;;;;;3.77;0.90;;;8.40;12.80;;;;;;4841625;29;36904;-78
2024/02/23 15:59:41;;;;;;;3.23;1.20;;;8.40;8.40;;;;;;4837618;29;36483;-77
2024/02/23 16:02:07;;;;;;;2.57;1.10;;;8.40;8.30;;;;;;4858393;29;38800;-80
2024/02/23 16:04:37;;;;;;;3.10;0.80;;;8.40;5.20;;;;;;4858693;29;39297;-79
2024/02/23 16:10:18;;;;;;;2.73;0.70;;;8.30;13.10;;;;;;5131818;23;20041;-80
2024/02/23 16:13:06;;;;;;;3.80;1.07;;;8.30;19.00;;;;;;4893031;29;48838;-81
2024/02/23 16:15:39;;;;;;;2.83;0.50;;;8.20;6.90;;;;;;4891503;28;48420;-80
2024/02/23 16:18:09;;;;;;;4.83;0.60;;;8.10;1.00;;;;;;4902748;28;38242;-79
2024/02/23 16:20:38;;;;;;;2.67;0.83;;;8.10;1.00;;;;;;4914095;29;36448;-79
2024/02/23 16:23:16;;;;;;;3.57;0.67;;;7.90;15.00;;;;;;4915219;28;39694;-79
2024/02/23 16:25:46;;;;;;;8.53;0.87;;;7.80;31.80;;;;;;4918017;28;38993;-80
2024/02/23 16:28:18;;;;;;;1.00;0.37;;;7.70;55.10;;;;;;4905441;29;37120;-80
2024/02/23 16:30:55;;;;;;;4.18;0.60;;;7.60;80.40;;;;;;4908819;29;36155;-79
2024/02/23 16:33:25;;;;;;;1.60;0.40;;;7.50;74.80;;;;;;4907650;29;39178;-79
2024/02/23 16:36:22;;;;;;;3.03;0.50;;;7.40;94.30;;;;;;4900508;29;39643;-80
2024/02/23 16:38:51;;;;;;;4.60;0.70;;;7.20;98.70;;;;;;4918382;28;39651;-80
2024/02/23 16:41:28;;;;;;;2.10;0.67;;;7.20;99.90;;;;;;4910959;28;37905;-81
2024/02/23 16:44:06;;;;;;;1.97;0.67;;;7.10;99.90;;;;;;4889055;29;38253;-80
2024/02/23 16:46:35;;;;;;;3.97;0.57;;;7.10;99.90;;;;;;4908705;28;48558;-81
2024/02/23 16:49:08;;;;;;;1.27;0.77;;;7.00;99.90;;;;;;4916453;29;38005;-79
2024/02/23 16:51:35;;;;;;;4.80;1.10;;;7.00;99.90;;;;;;4912765;28;48247;-82
2024/02/23 16:54:13;;;;;;;3.43;1.10;;;7.00;99.90;;;;;;4924799;28;40124;-81
2024/02/23 16:56:59;;;;;;;5.30;1.00;;;6.90;99.90;;;;;;4912819;28;38593;-81
2024/02/23 16:59:54;;;;;;;4.87;0.90;;;6.90;99.90;;;;;;4893560;29;36806;-82
2024/02/23 17:02:29;;;;;;;3.93;0.90;;;6.80;99.90;;;;;;4916918;28;38286;-80
2024/02/23 17:05:23;;;;;;;4.73;0.87;;;6.80;99.90;;;;;;4910541;29;40529;-80
2024/02/23 17:07:51;;;;;;;4.90;0.80;;;6.70;99.90;;;;;;4924346;28;48564;-81
2024/02/23 17:10:24;;;;;;;1.00;0.90;;;6.80;99.90;;;;;;4909045;28;39622;-81
2024/02/23 17:13:17;;;;;;;4.20;1.90;;;6.80;99.90;;;;;;4922756;28;38440;-81
2024/02/23 17:15:52;;;;;;;4.87;2.17;;;6.80;99.90;;;;;;4910151;28;39407;-82
2024/02/23 17:18:23;;;;;;;6.50;2.03;;;6.70;99.90;;;;;;4903375;28;41424;-81
2024/02/23 17:21:07;;;;;;;3.90;1.63;;;6.70;99.90;;;;;;4919715;28;39313;-82
2024/02/23 17:23:57;;;;;;;3.60;1.20;;;6.70;99.90;;;;;;4886335;29;48587;-81
2024/02/23 17:30:10;;;;;;;3.83;1.40;;;6.60;99.90;;;;;;4874056;29;50771;-81
2024/02/23 17:32:56;;;;;;;;;;;;;;;;;;;;;
2024/02/23 17:35:46;;;;;;;6.23;1.10;;;6.60;99.90;;;;;;4868344;29;39022;-81
2024/02/23 17:38:26;;;;;;;2.90;1.37;;;6.50;99.90;;;;;;4848311;29;40181;-81
2024/02/23 17:41:53;;;;;;;7.45;2.53;;;6.50;99.90;;;;;;4872266;29;37906;-81
2024/02/23 17:44:40;;;;;;;6.80;3.17;;;6.50;99.90;;;;;;4854199;29;50096;-81
2024/02/23 17:50:40;;;;;;;7.73;1.87;;;6.40;99.90;;;;;;4868792;29;50383;-81
2024/02/23 17:53:25;;;;;;;5.07;2.07;;;6.40;99.90;;;;;;4863333;29;38906;-80
2024/02/23 17:59:23;;;;;;;3.97;1.93;;;6.40;99.90;;;;;;4882503;29;49370;-81
2024/02/23 18:02:29;;;;;;;3.17;1.80;;;6.40;99.90;;;;;;4891633;29;38387;-81
2024/02/23 18:05:11;;;;;;;3.83;1.70;;;6.40;99.90;;;;;;4901811;28;48905;-82
2024/02/23 18:08:17;;;;;;;4.27;2.13;;;6.40;99.90;;;;;;4887485;29;50209;-82
2024/02/23 18:11:16;;;;;;;5.57;1.80;;;6.50;99.90;;;;;;4919538;29;37220;-81
2024/02/23 18:13:55;;;;;;;8.07;1.97;;;6.50;99.90;;;;;;4892035;28;48524;-81
2024/02/23 18:17:07;;;;;;;2.92;1.52;;;6.60;99.90;;;;;;4897641;28;39696;-80
2024/02/23 20:04:58;;;;;;;7.27;3.13;;;6.40;99.90;;;;;;5346695;23;20057;-77
2024/02/23 21:28:00;;;;;;;5.03;2.67;;;6.30;99.90;;;;;;5798705;23;20041;-81
2024/02/23 21:30:26;;;;;;;4.80;2.70;;;6.40;99.90;;;;;;4877460;29;38166;-81
2024/02/23 21:32:52;;;;;;;6.77;3.10;;;6.30;99.90;;;;;;4889757;29;38117;-80
2024/02/23 21:35:19;;;;;;;7.80;3.57;;;6.40;99.90;;;;;;4894211;29;38229;-81
2024/02/23 21:37:46;;;;;;;6.53;3.43;;;6.40;99.90;;;;;;4888751;29;37738;-80
2024/02/23 21:40:16;;;;;;;7.43;4.00;;;6.30;99.90;;;;;;4876766;29;37702;-80
2024/02/23 21:42:43;;;;;;;6.47;3.90;;;6.30;99.90;;;;;;4890786;29;36609;-80
2024/02/23 21:45:09;;;;;;;10.57;4.73;;;6.40;99.90;;;;;;4890732;29;38368;-79
2024/02/23 21:47:41;;;;;;;8.73;6.00;;;6.40;99.90;;;;;;4867430;29;39073;-80
2024/02/23 21:50:08;;;;;;;8.05;6.40;;;6.30;99.90;;;;;;4883363;29;39171;-78
